Startpagina
METAR-TAF:

METAR-TAF

Vliegvelden :

Luchthaven Caïro Internationaal

Caïro, Egypte

breedte: 30-08N, lengte: 031-24E, hoogte: 64 m

Actueel weer

Dit bericht is 43 minuten geleden gemaakt, om 12:00 UTC
Wind 4 kt uit het westnoordwesten
Temperatuur 22°C
Vochtigheid 53%
Druk 1020 hPa
Zicht: 6000 m
Verspreide wolken op 2500 ft
Gebroken wolken op 7000 ft

METAR: HECA 161200Z 29004KT 6000 SCT025 BKN070 22/12 Q1020

Tijdstip: 14:43 (12:43 UTC)

Verwachting

Dit bericht is 1 uur en het 43 minuten geleden gemaakt, om 11:00 UTC
Verwachting geldig van 16 om 12 UTC tot 17 om 18 UTC
Wind 8 kt uit het westnoordwesten
Zicht 10 km of meer
Verspreide wolken op 2500 ft
Tijdelijke
van 17 om 03 UTC tot 17 om 06 UTC
Wind 3 kt uit variabele richting
Zicht: 3000 m
Heiigheid

TAF: HECA 161100Z 1612/1718 30008KT 9999 SCT025 TEMPO 1703/1706 VRB03KT 3000 HZ NSC

Waarnemingen en weersverwachtingen van meer dan 4000 vliegvelden (METAR en TAF).

De beschikbare stations zijn de gele en rode punten op de kaart.

Ga met uw muis naar het station om de naam te zien.

Klik dan om waarnemingen en weersverwachtingen te zien.

kaart wijzigen: klik op de groene knoppen met een zwart kruis om in te zoomen, op de groene knop met een streepje om uit te zoomen of op de groene pijlen voor aangrenzende kaarten.


METAR-TAF: